Milford, Utah Weather observations

Data are for observation ending at time listed.
 Day   Time    Ave.   Ave.  Ave.  Vector   Max.   Stn.    Total    Solar   Ave.  
  of    of     Air    Rel.  Wind   Wind    Wind   Baro.  Precip.   Rad.    Soil  
Year   Day     Temp.  Hum.  Speed  Dir.    Gust   Pres.                    Temp. 
2016   (MST)    F      %     mph   deg.    mph     mb.     in.     W/m2     F   
------------------------------------------------------------------------------
 337   21:10   27.6    77    3.6     4      8.2   849.0    0.00       0    39.0
 337   21:20   27.5    75    4.2     6      8.5   849.0    0.00       0    39.0
 337   21:30   27.1    75    4.3     9      8.3   849.0    0.00       0    39.0
 337   21:40   26.6    75    4.8    10      9.6   848.9    0.00       0    39.0
 337   21:50   26.1    76    3.5     9      7.9   849.0    0.00       0    39.0
 337   22:00   25.2    78    2.6     7      6.1   848.9    0.00       0    39.0
 337   22:10   24.6    78    1.7   350      6.9   848.9    0.00       0    39.0
 337   22:20   24.2    78    1.2   337      4.7   848.9    0.00       0    39.0
 337   22:30   23.9    78    0.6   324      5.2   848.9    0.00       0    39.0
 337   22:40   23.9    77    1.1   332      4.3   848.9    0.00       0    39.0
 337   22:50   23.9    76    1.6     3      5.3   848.9    0.00       0    39.0
 337   23:00   23.7    76    2.5    10      5.2   848.9    0.00       0    39.0
 337   23:10   23.4    77    2.1   359      4.9   848.8    0.00       0    38.9
 337   23:20   23.4    76    2.1     0      5.0   848.7    0.00       0    38.9
 337   23:30   23.4    76    1.7     1      5.0   848.7    0.00       0    38.9
 337   23:40   23.0    76    1.8     9      4.2   848.6    0.00       0    38.9
 337   23:50   22.8    77    1.9     6      3.9   848.6    0.00       0    38.9
 338    0:00   22.4    77    3.2    18      4.8   848.7    0.00       0    38.9
 338    0:10   21.7    79    3.9    28      6.0   848.7    0.00       0    38.9
 338    0:20   20.4    81    3.1    47      5.0   848.5    0.00       0    38.9
 338    0:30   19.4    83    0.9    27      2.9   848.4    0.00       0    38.9
 338    0:40   19.4    85    0.2     7      2.0   848.5    0.00       0    38.9
 338    0:50   19.5    84    0.3    14      2.0   848.2    0.00       0    38.9
 338    1:00   19.1    85    0.0     0      0.0   848.1    0.00       0    38.9
 338    1:10   18.9    85    0.1    32      1.2   847.9    0.00       0    38.8
 338    1:20   18.8    85    0.1     8      1.2   848.1    0.00       0    38.8
 338    1:30   19.1    85    0.1    10      1.6   848.1    0.00       0    38.8
 338    1:40   20.4    84    0.2    36      1.8   848.1    0.00       0    38.8
 338    1:50   19.7    83    0.5   173      1.9   848.2    0.00       0    38.8
 338    2:00   18.8    84    1.0    94      2.5   848.2    0.00       0    38.8
 338    2:10   18.8    86    1.5    40      3.4   848.2    0.00       0    38.7
 338    2:20   18.7    85    0.3   137      2.0   848.2    0.00       0    38.7
 338    2:30   18.3    86    0.1   270      0.8   848.2    0.00       0    38.7
 338    2:40   18.5    86    0.0   303      0.7   848.2    0.00       0    38.7
 338    2:50   18.3    86    0.0     0      0.0   848.1    0.00       0    38.7
 338    3:00   17.9    87    0.0     0      0.0   848.0    0.00       0    38.7
 338    3:10   17.7    88    0.1   306      1.6   848.1    0.00       0    38.7
 338    3:20   18.2    87    0.5    21      1.5   848.2    0.00       0    38.7
 338    3:30   18.2    86    0.0     0      0.0   848.3    0.00       0    38.7
 338    3:40   18.2    86    0.0     0      0.0   848.1    0.00       0    38.6
 338    3:50   16.6    85    0.0     0      0.0   847.9    0.00       0    38.6
 338    4:00   15.3    87    0.0     0      0.0   847.6    0.00       0    38.6
 338    4:10   15.7    88    0.0     0      0.0   847.6    0.00       0    38.6
 338    4:20   15.9    89    0.0     0      0.0   847.3    0.00       0    38.6
 338    4:30   16.3    89    0.0     0      0.0   847.3    0.00       0    38.5
 338    4:40   16.6    88    0.0     0      0.0   847.3    0.00       0    38.5
 338    4:50   16.2    88    0.0     0      0.0   847.3    0.00       0    38.5
 338    5:00   15.8    87    0.2    20      1.2   847.4    0.00       0    38.5
 338    5:10   13.3    84    0.1   191      2.0   847.5    0.00       0    38.5
 338    5:20   12.4    87    1.3   197      3.0   847.5    0.00       0    38.5
 338    5:30   12.6    89    0.1   241      1.8   847.4    0.00       0    38.5
 338    5:40   13.2    90    0.0     0      0.0   847.2    0.00       0    38.4
 338    5:50   13.9    90    0.9   265      2.3   847.1    0.00       0    38.4
 338    6:00   13.9    90    0.2   274      1.3   847.1    0.00       0    38.4
 338    6:10   13.7    90    0.0    62      0.9   847.1    0.00       0    38.4
 338    6:20   12.9    88    0.0     0      0.0   847.2    0.00       0    38.4
 338    6:30   13.3    89    0.7   292      1.6   847.3    0.00       0    38.3
 338    6:40   13.4    88    0.0   285      0.5   847.3    0.00       0    38.3
 338    6:50   13.1    88    0.0   182      0.6   847.6    0.00       0    38.3
 338    7:00   12.6    88    0.8   182      2.0   847.7    0.00       0    38.3
 338    7:10   12.1    88    1.5   190      2.9   847.6    0.00       0    38.3
 338    7:20   11.9    89    1.0   197      2.7   847.6    0.00       0    38.3
 338    7:30   11.5    90    1.2   218      2.9   847.5    0.00       1    38.2
 338    7:40   11.7    90    1.7   253      3.1   847.4    0.00       5    38.2
 338    7:50   12.8    89    1.7   256      3.1   847.3    0.00       8    38.2
 338    8:00   13.2    87    1.3   233      3.6   847.2    0.00      12    38.2
 338    8:10   13.2    86    1.4   175      3.1   847.3    0.00      37    38.2
 338    8:20   13.1    84    2.6   170      4.5   847.6    0.00      86    38.1
 338    8:30   13.1    84    2.1   174      4.2   848.0    0.00     118    38.1
 338    8:40   14.6    84    1.3   190      3.0   848.3    0.00     151    38.1
 338    8:50   17.0    82    0.9   150      2.6   848.5    0.00     178    38.1
 338    9:00   18.6    79    1.8   144      3.1   848.7    0.00     199    38.1
 338    9:10   20.6    76    1.4   138      2.1   849.0    0.00     218    38.1
 338    9:20   22.5    70    1.0   118      2.0   849.4    0.00     238    38.1
 338    9:30   23.5    68    1.5   142      4.0   849.6    0.00     255    38.1
 338    9:40   23.8    68    1.6   146      3.4   849.6    0.00     272    38.0
 338    9:50   25.6    66    0.6   152      2.1   849.7    0.00     288    38.0
 338   10:00   27.7    63    0.7   251      2.3   849.9    0.00     307    38.0
 338   10:10   29.3    62    0.6     6      3.0   850.4    0.00     327    38.0
 338   10:20   29.3    61    2.0    19      5.1   850.8    0.00     345    38.1
 338   10:30   28.6    62    3.6    22      6.4   850.9    0.00     362    38.1
 338   10:40   29.1    62    4.5    26      6.8   851.0    0.00     378    38.1
 338   10:50   29.5    60    4.4    23      6.9   851.0    0.00     390    38.1
 338   11:00   30.6    58    4.7    23      8.6   851.0    0.00     402    38.1
 338   11:10   30.5    58    5.2    27      9.2   850.9    0.00     415    38.1
 338   11:20   30.7    59    4.4    36      7.7   850.8    0.00     427    38.1
 338   11:30   32.1    56    4.4    23      9.4   850.7    0.00     431    38.1
 338   11:40   32.0    55    5.5    28     10.9   850.7    0.00     437    38.1
 338   11:50   32.7    54    5.0    22      8.3   850.7    0.00     451    38.1
 338   12:00   32.6    54    6.6    26      9.9   850.6    0.00     450    38.1
 338   12:10   33.1    52    5.9    21     10.1   850.6    0.00     452    38.1
 338   12:20   33.6    52    5.0    20     10.0   850.5    0.00     436    38.1
 338   12:30   34.1    50    5.6    23     10.1   850.3    0.00     428    38.1
 338   12:40   34.4    49    5.0    22      8.9   850.3    0.00     426    38.1
 338   12:50   35.6    47    3.9    20      8.9   850.1    0.00     439    38.1
 338   13:00   35.7    47    4.0    14      8.1   850.1    0.00     440    38.1
 338   13:10   36.1    45    5.4    21     10.5   850.1    0.00     435    38.1
 338   13:20   36.0    44    6.2    19     10.9   850.1    0.00     428    38.1
 338   13:30   35.9    44    7.4    20     11.4   850.1    0.00     418    38.1
 338   13:40   36.2    44    7.2    21     12.4   850.0    0.00     409    38.1
 338   13:50   36.9    43    5.6    14     10.2   850.0    0.00     398    38.1
 338   14:00   37.5    42    5.1    11     10.3   850.0    0.00     387    38.1
 338   14:10   37.3    40    6.8    17     11.7   849.9    0.00     363    38.1
 338   14:20   37.0    39    7.0    14     13.5   849.8    0.00     259    38.1
 338   14:30   36.9    38    6.1    12     12.6   849.6    0.00      78    38.1
 338   14:40   37.2    39    4.2     9     10.0   849.4    0.00      58    38.1
 338   14:50   37.2    36    4.4     8     12.1   849.2    0.00      37    38.1
 338   15:00   37.4    33    4.7     8     10.5   849.0    0.00      35    38.0
 338   15:10   37.7    32    6.3    14     12.4   849.1    0.00      57    38.0
 338   15:20   37.8    30    7.0    14     14.5   849.0    0.00      98    38.0
 338   15:30   38.1    29    4.3     9     10.7   849.0    0.00      75    38.0
 338   15:40   38.3    29    4.6     8     10.7   849.1    0.00     208    38.0
 338   15:50   37.8    29    6.3    12     11.1   849.0    0.00     142    38.0
 338   16:00   37.1    29    4.5     6     10.7   849.0    0.00     102    38.1
 338   16:10   37.0    31    4.4     8      9.9   849.0    0.00      88    38.1
 338   16:20   37.2    30    3.8     7      9.3   849.1    0.00     100    38.1
 338   16:30   36.1    31    2.9     4      8.6   849.0    0.00      17    38.1
 338   16:40   35.5    33    2.5   360      5.8   848.9    0.00      12    38.1
 338   16:50   35.1    34    2.1     2      6.0   848.9    0.00      10    38.1
 338   17:00   34.5    39    1.7     6      4.5   848.9    0.00       8    38.1
 338   17:10   33.8    42    1.5     4      4.2   848.8    0.00       5    38.1
 338   17:20   32.9    44    1.6     7      3.4   848.6    0.00       3    38.1
 338   17:30   32.0    46    2.4    11      4.9   848.5    0.00       0    38.1
 338   17:40   30.6    49    1.8    10      4.3   848.5    0.00       0    38.1
 338   17:50   29.5    51    1.7    19      3.3   848.5    0.00       0    38.1
 338   18:00   28.1    53    1.5    54      2.8   848.5    0.00       0    38.2
 338   18:10   27.0    57    0.8    33      4.2   848.2    0.00       0    38.2
 338   18:20   26.5    59    1.9     8      4.0   848.3    0.00       0    38.2
 338   18:30   26.6    60    2.0    11      3.6   848.3    0.00       0    38.1
 338   18:40   26.7    60    1.4    11      2.9   848.4    0.00       0    38.2
 338   18:50   26.3    61    0.6    19      1.8   848.4    0.00       0    38.2
 338   19:00   25.9    61    0.7     7      1.8   848.3    0.00       0    38.2
 338   19:10   25.7    62    0.2     4      1.6   848.1    0.00       0    38.2
 338   19:20   26.3    62    0.6    25      2.3   848.0    0.00       0    38.2
 338   19:30   25.7    63    0.2    69      2.6   848.2    0.00       0    38.2
 338   19:40   25.1    65    0.1    14      2.6   848.5    0.00       0    38.2
 338   19:50   25.4    65    1.1    22      3.1   848.5    0.00       0    38.2
 338   20:00   23.2    69    1.6    48      4.0   848.2    0.00       0    38.2
 338   20:10   22.2    73    0.3    19      2.4   848.0    0.00       0    38.2
 338   20:20   22.7    74    0.1     7      1.5   848.0    0.00       0    38.2
 338   20:30   23.2    73    0.1    34      1.5   848.1    0.00       0    38.2
 338   20:40   23.3    72    0.6    18      1.8   848.1    0.00       0    38.2
 338   20:50   23.0    72    0.5    38      2.3   848.2    0.00       0    38.2
 338   21:00   22.8    72    0.0     0      0.0   848.1    0.00       0    38.2

Return to Milford, Utah graphs page.


Western Regional Climate Center,wrcc@dri.edu